La Palma > ESTACION METEOROLÓGICA La Alameda - S/C La Palma

DATOS ACTUALES Online

Ultima actulizacion 7 minutos

20 ºC

Temperatura

72

Humedad (%)

1015.2

Presión (mb)

0

Precipitación (mm)

0.3 E

Viento (Km/h)

DATOS DIARIOS

Temperatura últimas 24 horas (ºC)

Humedad últimas 24 horas (%)

Presión atmosférica últimas 24 horas (mb)

Precipitaciones últimas 23 horas (mm)

Viento últimas 24 horas (Km/h)

Hora Temperatura (°C) ºC Precipitación (mm) mm Presión (mb) mb Humedad (%) % Viento (Km/h) km/h
28 - 23:00 18.7 0 1016 70 0.6 SSE
29 - 00:00 18.3 0 1016 69 4.7 WSW
29 - 01:00 18.1 0 1016 69 5.5 W
29 - 02:00 17.7 0 1015 69 2.1 S
29 - 03:00 17.7 0 1015 68 2.1 WNW
29 - 04:00 17.5 0 1015 70 0.3 NE
29 - 05:00 17.7 0 1015 68 5.5 W
29 - 06:00 18 0 1015 69 2.6 SE
29 - 07:00 18.3 0 1015 69 1.1 N
29 - 08:00 19.8 0 1016 65 3.5 N
29 - 09:00 21 0 1016 64 0.3 NE
29 - 10:00 21.5 0 1016 61 0.3 WSW
29 - 11:00 22.7 0 1016 59 2.6 NNE
29 - 12:00 22.9 0 1016 63 3.5 ESE
29 - 13:00 23.1 0 1016 58 1.8 ESE
29 - 14:00 23.1 0 1015 58 4 ESE
29 - 15:00 22.4 0 1015 65 6.4 NNE
29 - 16:00 22.4 0 1015 62 0 N
29 - 17:00 22 0 1015 63 2.9 SW
29 - 18:00 21.5 0 1015 65 4 ESE
29 - 19:00 21.6 0 1015 66 2.9 SE
29 - 20:00 21.1 0 1015 69 1.8 SE
29 - 21:00 21 0 1015 72 0 SSE
29 - 22:00 20.7 0 1015 72 0 WNW
29 - 23:00 20 0 1015 72 0.3 E
Apalmet utiliza cookies propias y de terceros para mejorar la usabilidad y la experiencia web. Política de cookies.